sensor_id;sensor_type;location;lat;lon;timestamp;P1;durP1;ratioP1;P2;durP2;ratioP2
4144;SDS011;2086;51.050;6.982;2022-08-19T00:00:26;8.13;;;5.57;;
4144;SDS011;2086;51.050;6.982;2022-08-19T00:02:52;6.80;;;5.73;;
4144;SDS011;2086;51.050;6.982;2022-08-19T00:05:18;6.83;;;6.10;;
4144;SDS011;2086;51.050;6.982;2022-08-19T00:07:44;5.60;;;5.20;;
4144;SDS011;2086;51.050;6.982;2022-08-19T00:10:10;5.77;;;5.37;;
4144;SDS011;2086;51.050;6.982;2022-08-19T00:12:36;6.60;;;5.90;;
4144;SDS011;2086;51.050;6.982;2022-08-19T00:15:03;5.67;;;5.17;;
4144;SDS011;2086;51.050;6.982;2022-08-19T00:17:29;6.53;;;5.77;;
4144;SDS011;2086;51.050;6.982;2022-08-19T00:19:54;5.80;;;5.30;;
4144;SDS011;2086;51.050;6.982;2022-08-19T00:22:19;5.87;;;5.47;;
4144;SDS011;2086;51.050;6.982;2022-08-19T00:24:45;7.43;;;6.83;;
4144;SDS011;2086;51.050;6.982;2022-08-19T00:27:10;7.17;;;5.50;;
4144;SDS011;2086;51.050;6.982;2022-08-19T00:29:36;7.43;;;6.00;;
4144;SDS011;2086;51.050;6.982;2022-08-19T00:32:01;5.63;;;5.30;;
4144;SDS011;2086;51.050;6.982;2022-08-19T00:34:26;6.20;;;5.63;;
4144;SDS011;2086;51.050;6.982;2022-08-19T00:36:54;5.77;;;5.07;;
4144;SDS011;2086;51.050;6.982;2022-08-19T00:39:19;7.17;;;6.50;;
4144;SDS011;2086;51.050;6.982;2022-08-19T00:41:45;6.47;;;5.90;;
4144;SDS011;2086;51.050;6.982;2022-08-19T00:44:14;12.10;;;6.77;;
4144;SDS011;2086;51.050;6.982;2022-08-19T00:46:40;6.27;;;5.67;;
4144;SDS011;2086;51.050;6.982;2022-08-19T00:49:10;6.67;;;6.17;;
4144;SDS011;2086;51.050;6.982;2022-08-19T00:51:39;6.07;;;4.93;;
4144;SDS011;2086;51.050;6.982;2022-08-19T00:54:04;10.53;;;5.67;;
4144;SDS011;2086;51.050;6.982;2022-08-19T00:56:30;6.60;;;5.60;;
4144;SDS011;2086;51.050;6.982;2022-08-19T00:58:56;7.40;;;6.70;;
4144;SDS011;2086;51.050;6.982;2022-08-19T01:01:22;6.50;;;5.87;;
4144;SDS011;2086;51.050;6.982;2022-08-19T01:03:47;7.07;;;6.43;;
4144;SDS011;2086;51.050;6.982;2022-08-19T01:06:13;6.67;;;5.97;;
4144;SDS011;2086;51.050;6.982;2022-08-19T01:08:39;7.27;;;6.57;;
4144;SDS011;2086;51.050;6.982;2022-08-19T01:11:04;7.03;;;5.80;;
4144;SDS011;2086;51.050;6.982;2022-08-19T01:13:30;8.10;;;6.57;;
4144;SDS011;2086;51.050;6.982;2022-08-19T01:16:04;11.47;;;6.57;;
4144;SDS011;2086;51.050;6.982;2022-08-19T01:18:30;6.90;;;6.40;;
4144;SDS011;2086;51.050;6.982;2022-08-19T01:20:58;9.63;;;7.17;;
4144;SDS011;2086;51.050;6.982;2022-08-19T01:23:26;7.67;;;5.60;;
4144;SDS011;2086;51.050;6.982;2022-08-19T01:26:08;9.33;;;6.73;;
4144;SDS011;2086;51.050;6.982;2022-08-19T01:28:33;9.00;;;6.50;;
4144;SDS011;2086;51.050;6.982;2022-08-19T01:30:58;8.03;;;6.67;;
4144;SDS011;2086;51.050;6.982;2022-08-19T01:33:24;8.10;;;6.73;;
4144;SDS011;2086;51.050;6.982;2022-08-19T01:35:49;16.17;;;5.67;;
4144;SDS011;2086;51.050;6.982;2022-08-19T01:38:20;8.00;;;7.20;;
4144;SDS011;2086;51.050;6.982;2022-08-19T01:40:45;11.40;;;6.83;;
4144;SDS011;2086;51.050;6.982;2022-08-19T01:43:10;11.30;;;7.90;;
4144;SDS011;2086;51.050;6.982;2022-08-19T01:45:36;7.60;;;5.87;;
4144;SDS011;2086;51.050;6.982;2022-08-19T01:48:02;7.00;;;5.77;;
4144;SDS011;2086;51.050;6.982;2022-08-19T01:50:28;9.43;;;6.30;;
4144;SDS011;2086;51.050;6.982;2022-08-19T01:52:54;8.83;;;6.53;;
4144;SDS011;2086;51.050;6.982;2022-08-19T01:55:20;10.33;;;7.23;;
4144;SDS011;2086;51.050;6.982;2022-08-19T01:57:49;10.83;;;7.97;;
4144;SDS011;2086;51.050;6.982;2022-08-19T02:00:16;8.87;;;8.07;;
4144;SDS011;2086;51.050;6.982;2022-08-19T02:02:42;7.67;;;6.63;;
4144;SDS011;2086;51.050;6.982;2022-08-19T02:05:07;8.43;;;7.57;;
4144;SDS011;2086;51.050;6.982;2022-08-19T02:07:33;8.17;;;6.67;;
4144;SDS011;2086;51.050;6.982;2022-08-19T02:09:58;10.00;;;8.33;;
4144;SDS011;2086;51.050;6.982;2022-08-19T02:12:26;9.63;;;7.33;;
4144;SDS011;2086;51.050;6.982;2022-08-19T02:14:51;7.60;;;6.83;;
4144;SDS011;2086;51.050;6.982;2022-08-19T02:17:16;8.23;;;6.80;;
4144;SDS011;2086;51.050;6.982;2022-08-19T02:19:41;10.17;;;8.90;;
4144;SDS011;2086;51.050;6.982;2022-08-19T02:22:06;8.30;;;7.43;;
4144;SDS011;2086;51.050;6.982;2022-08-19T02:24:32;8.47;;;7.53;;
4144;SDS011;2086;51.050;6.982;2022-08-19T02:26:57;10.20;;;7.53;;
4144;SDS011;2086;51.050;6.982;2022-08-19T02:29:23;6.60;;;6.10;;
4144;SDS011;2086;51.050;6.982;2022-08-19T02:31:49;8.63;;;7.73;;
4144;SDS011;2086;51.050;6.982;2022-08-19T02:34:14;9.10;;;8.10;;
4144;SDS011;2086;51.050;6.982;2022-08-19T02:36:40;9.57;;;6.97;;
4144;SDS011;2086;51.050;6.982;2022-08-19T02:39:05;8.03;;;7.23;;
4144;SDS011;2086;51.050;6.982;2022-08-19T02:41:32;9.10;;;7.30;;
4144;SDS011;2086;51.050;6.982;2022-08-19T02:43:58;11.70;;;8.00;;
4144;SDS011;2086;51.050;6.982;2022-08-19T02:46:24;7.20;;;6.50;;
4144;SDS011;2086;51.050;6.982;2022-08-19T02:48:52;7.70;;;6.57;;
4144;SDS011;2086;51.050;6.982;2022-08-19T02:51:22;9.43;;;7.27;;
4144;SDS011;2086;51.050;6.982;2022-08-19T02:53:47;7.70;;;7.00;;
4144;SDS011;2086;51.050;6.982;2022-08-19T02:56:13;8.53;;;7.63;;
4144;SDS011;2086;51.050;6.982;2022-08-19T02:58:38;8.50;;;6.90;;
4144;SDS011;2086;51.050;6.982;2022-08-19T03:01:03;9.10;;;7.70;;
4144;SDS011;2086;51.050;6.982;2022-08-19T03:03:29;10.37;;;7.83;;
4144;SDS011;2086;51.050;6.982;2022-08-19T03:06:04;10.03;;;7.10;;
4144;SDS011;2086;51.050;6.982;2022-08-19T03:08:29;11.50;;;8.43;;
4144;SDS011;2086;51.050;6.982;2022-08-19T03:10:55;14.33;;;8.23;;
4144;SDS011;2086;51.050;6.982;2022-08-19T03:13:20;8.10;;;7.40;;
4144;SDS011;2086;51.050;6.982;2022-08-19T03:15:46;10.80;;;8.70;;
4144;SDS011;2086;51.050;6.982;2022-08-19T03:18:12;7.17;;;6.47;;
4144;SDS011;2086;51.050;6.982;2022-08-19T03:20:43;8.10;;;7.30;;
4144;SDS011;2086;51.050;6.982;2022-08-19T03:23:08;11.07;;;8.57;;
4144;SDS011;2086;51.050;6.982;2022-08-19T03:25:37;8.90;;;8.00;;
4144;SDS011;2086;51.050;6.982;2022-08-19T03:28:03;11.23;;;8.10;;
4144;SDS011;2086;51.050;6.982;2022-08-19T03:30:28;7.77;;;6.40;;
4144;SDS011;2086;51.050;6.982;2022-08-19T03:32:53;15.47;;;9.10;;
4144;SDS011;2086;51.050;6.982;2022-08-19T03:35:18;11.13;;;8.27;;
4144;SDS011;2086;51.050;6.982;2022-08-19T03:37:45;14.10;;;8.40;;
4144;SDS011;2086;51.050;6.982;2022-08-19T03:40:10;13.10;;;6.20;;
4144;SDS011;2086;51.050;6.982;2022-08-19T03:42:36;9.00;;;7.70;;
4144;SDS011;2086;51.050;6.982;2022-08-19T03:45:01;9.90;;;7.77;;
4144;SDS011;2086;51.050;6.982;2022-08-19T03:47:26;9.97;;;7.27;;
4144;SDS011;2086;51.050;6.982;2022-08-19T03:49:52;10.10;;;7.87;;
4144;SDS011;2086;51.050;6.982;2022-08-19T03:52:17;9.43;;;8.50;;
4144;SDS011;2086;51.050;6.982;2022-08-19T03:54:42;11.47;;;6.87;;
4144;SDS011;2086;51.050;6.982;2022-08-19T03:57:07;7.90;;;7.10;;
4144;SDS011;2086;51.050;6.982;2022-08-19T03:59:35;11.57;;;8.53;;
4144;SDS011;2086;51.050;6.982;2022-08-19T04:02:01;10.20;;;8.10;;
4144;SDS011;2086;51.050;6.982;2022-08-19T04:04:27;9.43;;;7.70;;
4144;SDS011;2086;51.050;6.982;2022-08-19T04:06:52;10.57;;;8.33;;
4144;SDS011;2086;51.050;6.982;2022-08-19T04:09:18;10.40;;;7.00;;
4144;SDS011;2086;51.050;6.982;2022-08-19T04:11:45;11.57;;;7.47;;
4144;SDS011;2086;51.050;6.982;2022-08-19T04:14:12;9.27;;;7.37;;
4144;SDS011;2086;51.050;6.982;2022-08-19T04:16:38;12.40;;;7.47;;
4144;SDS011;2086;51.050;6.982;2022-08-19T04:19:04;10.13;;;7.73;;
4144;SDS011;2086;51.050;6.982;2022-08-19T04:21:29;10.70;;;8.00;;
4144;SDS011;2086;51.050;6.982;2022-08-19T04:23:55;10.60;;;7.43;;
4144;SDS011;2086;51.050;6.982;2022-08-19T04:26:24;10.23;;;8.20;;
4144;SDS011;2086;51.050;6.982;2022-08-19T04:28:50;7.93;;;7.23;;
4144;SDS011;2086;51.050;6.982;2022-08-19T04:31:20;10.40;;;7.93;;
4144;SDS011;2086;51.050;6.982;2022-08-19T04:33:47;9.90;;;7.90;;
4144;SDS011;2086;51.050;6.982;2022-08-19T04:36:19;9.27;;;6.60;;
4144;SDS011;2086;51.050;6.982;2022-08-19T04:38:45;10.90;;;8.47;;
4144;SDS011;2086;51.050;6.982;2022-08-19T04:41:11;9.13;;;7.70;;
4144;SDS011;2086;51.050;6.982;2022-08-19T04:43:54;10.83;;;8.17;;
4144;SDS011;2086;51.050;6.982;2022-08-19T04:46:20;14.13;;;8.90;;
4144;SDS011;2086;51.050;6.982;2022-08-19T04:48:45;8.47;;;7.50;;
4144;SDS011;2086;51.050;6.982;2022-08-19T04:51:11;10.57;;;7.60;;
4144;SDS011;2086;51.050;6.982;2022-08-19T04:53:38;10.80;;;7.93;;
4144;SDS011;2086;51.050;6.982;2022-08-19T04:56:05;9.93;;;7.43;;
4144;SDS011;2086;51.050;6.982;2022-08-19T04:58:31;12.03;;;8.57;;
4144;SDS011;2086;51.050;6.982;2022-08-19T05:00:57;7.73;;;6.93;;
4144;SDS011;2086;51.050;6.982;2022-08-19T05:03:24;10.57;;;7.97;;
4144;SDS011;2086;51.050;6.982;2022-08-19T05:05:50;13.30;;;8.20;;
4144;SDS011;2086;51.050;6.982;2022-08-19T05:08:16;9.00;;;7.80;;
4144;SDS011;2086;51.050;6.982;2022-08-19T05:10:46;12.10;;;9.10;;
4144;SDS011;2086;51.050;6.982;2022-08-19T05:13:12;9.90;;;8.00;;
4144;SDS011;2086;51.050;6.982;2022-08-19T05:15:38;13.40;;;9.33;;
4144;SDS011;2086;51.050;6.982;2022-08-19T05:18:03;15.47;;;8.63;;
4144;SDS011;2086;51.050;6.982;2022-08-19T05:20:46;10.40;;;8.90;;
4144;SDS011;2086;51.050;6.982;2022-08-19T05:23:30;10.87;;;9.03;;
4144;SDS011;2086;51.050;6.982;2022-08-19T05:25:56;14.63;;;9.03;;
4144;SDS011;2086;51.050;6.982;2022-08-19T05:28:21;11.13;;;9.00;;
4144;SDS011;2086;51.050;6.982;2022-08-19T05:30:46;15.67;;;9.13;;
4144;SDS011;2086;51.050;6.982;2022-08-19T05:33:13;14.50;;;9.80;;
4144;SDS011;2086;51.050;6.982;2022-08-19T05:35:39;10.67;;;9.20;;
4144;SDS011;2086;51.050;6.982;2022-08-19T05:38:06;14.67;;;9.80;;
4144;SDS011;2086;51.050;6.982;2022-08-19T05:40:34;14.43;;;8.77;;
4144;SDS011;2086;51.050;6.982;2022-08-19T05:43:01;11.73;;;9.70;;
4144;SDS011;2086;51.050;6.982;2022-08-19T05:45:26;19.77;;;12.00;;
4144;SDS011;2086;51.050;6.982;2022-08-19T05:47:52;21.27;;;13.70;;
4144;SDS011;2086;51.050;6.982;2022-08-19T05:50:18;23.30;;;14.90;;
4144;SDS011;2086;51.050;6.982;2022-08-19T05:52:43;30.37;;;14.57;;
4144;SDS011;2086;51.050;6.982;2022-08-19T05:55:08;25.00;;;13.67;;
4144;SDS011;2086;51.050;6.982;2022-08-19T05:57:34;32.60;;;14.57;;
4144;SDS011;2086;51.050;6.982;2022-08-19T05:59:59;36.93;;;17.50;;
4144;SDS011;2086;51.050;6.982;2022-08-19T06:02:27;41.63;;;18.00;;
4144;SDS011;2086;51.050;6.982;2022-08-19T06:04:52;28.87;;;17.10;;
4144;SDS011;2086;51.050;6.982;2022-08-19T06:07:17;33.97;;;18.07;;
4144;SDS011;2086;51.050;6.982;2022-08-19T06:09:42;33.57;;;18.37;;
4144;SDS011;2086;51.050;6.982;2022-08-19T06:12:08;31.03;;;18.23;;
4144;SDS011;2086;51.050;6.982;2022-08-19T06:14:34;29.00;;;16.70;;
4144;SDS011;2086;51.050;6.982;2022-08-19T06:16:59;26.67;;;15.17;;
4144;SDS011;2086;51.050;6.982;2022-08-19T06:19:26;27.60;;;17.07;;
4144;SDS011;2086;51.050;6.982;2022-08-19T06:21:54;30.57;;;16.37;;
4144;SDS011;2086;51.050;6.982;2022-08-19T06:24:20;26.53;;;16.53;;
4144;SDS011;2086;51.050;6.982;2022-08-19T06:26:48;34.60;;;19.20;;
4144;SDS011;2086;51.050;6.982;2022-08-19T06:29:14;26.17;;;17.07;;
4144;SDS011;2086;51.050;6.982;2022-08-19T06:31:41;33.87;;;18.37;;
4144;SDS011;2086;51.050;6.982;2022-08-19T06:34:06;30.47;;;17.73;;
4144;SDS011;2086;51.050;6.982;2022-08-19T06:36:33;31.50;;;17.17;;
4144;SDS011;2086;51.050;6.982;2022-08-19T06:39:02;32.27;;;17.43;;
4144;SDS011;2086;51.050;6.982;2022-08-19T06:41:28;48.53;;;18.87;;
4144;SDS011;2086;51.050;6.982;2022-08-19T06:43:54;31.50;;;18.97;;
4144;SDS011;2086;51.050;6.982;2022-08-19T06:46:20;31.97;;;18.40;;
4144;SDS011;2086;51.050;6.982;2022-08-19T06:48:46;29.27;;;18.00;;
4144;SDS011;2086;51.050;6.982;2022-08-19T06:51:15;33.60;;;19.27;;
4144;SDS011;2086;51.050;6.982;2022-08-19T06:53:43;29.63;;;16.93;;
4144;SDS011;2086;51.050;6.982;2022-08-19T06:56:12;28.67;;;16.83;;
4144;SDS011;2086;51.050;6.982;2022-08-19T06:58:38;33.20;;;17.40;;
4144;SDS011;2086;51.050;6.982;2022-08-19T07:01:03;27.43;;;16.40;;
4144;SDS011;2086;51.050;6.982;2022-08-19T07:03:30;29.37;;;17.07;;
4144;SDS011;2086;51.050;6.982;2022-08-19T07:05:56;27.57;;;16.03;;
4144;SDS011;2086;51.050;6.982;2022-08-19T07:08:21;26.07;;;14.77;;
4144;SDS011;2086;51.050;6.982;2022-08-19T07:10:46;28.10;;;16.53;;
4144;SDS011;2086;51.050;6.982;2022-08-19T07:13:12;22.33;;;14.33;;
4144;SDS011;2086;51.050;6.982;2022-08-19T07:15:38;29.27;;;16.00;;
4144;SDS011;2086;51.050;6.982;2022-08-19T07:18:03;29.40;;;16.17;;
4144;SDS011;2086;51.050;6.982;2022-08-19T07:20:28;28.10;;;15.07;;
4144;SDS011;2086;51.050;6.982;2022-08-19T07:22:53;30.00;;;15.90;;
4144;SDS011;2086;51.050;6.982;2022-08-19T07:25:19;24.87;;;15.10;;
4144;SDS011;2086;51.050;6.982;2022-08-19T07:27:45;26.40;;;15.60;;
4144;SDS011;2086;51.050;6.982;2022-08-19T07:30:11;21.10;;;13.10;;
4144;SDS011;2086;51.050;6.982;2022-08-19T07:32:38;30.97;;;14.30;;
4144;SDS011;2086;51.050;6.982;2022-08-19T07:35:04;23.93;;;15.10;;
4144;SDS011;2086;51.050;6.982;2022-08-19T07:37:31;20.80;;;13.30;;
4144;SDS011;2086;51.050;6.982;2022-08-19T07:39:56;23.30;;;14.77;;
4144;SDS011;2086;51.050;6.982;2022-08-19T07:42:21;25.10;;;13.17;;
4144;SDS011;2086;51.050;6.982;2022-08-19T07:44:47;24.67;;;13.90;;
4144;SDS011;2086;51.050;6.982;2022-08-19T07:47:12;23.13;;;11.97;;
4144;SDS011;2086;51.050;6.982;2022-08-19T07:49:38;17.20;;;13.30;;
4144;SDS011;2086;51.050;6.982;2022-08-19T07:52:06;26.57;;;13.43;;
4144;SDS011;2086;51.050;6.982;2022-08-19T07:54:33;21.03;;;13.57;;
4144;SDS011;2086;51.050;6.982;2022-08-19T07:57:01;19.87;;;12.90;;
4144;SDS011;2086;51.050;6.982;2022-08-19T07:59:27;22.70;;;12.40;;
4144;SDS011;2086;51.050;6.982;2022-08-19T08:01:53;31.97;;;14.70;;
4144;SDS011;2086;51.050;6.982;2022-08-19T08:04:19;22.87;;;15.70;;
4144;SDS011;2086;51.050;6.982;2022-08-19T08:07:03;29.93;;;13.27;;
4144;SDS011;2086;51.050;6.982;2022-08-19T08:09:47;18.53;;;11.60;;
4144;SDS011;2086;51.050;6.982;2022-08-19T08:12:17;22.73;;;14.50;;
4144;SDS011;2086;51.050;6.982;2022-08-19T08:14:44;29.63;;;14.07;;
4144;SDS011;2086;51.050;6.982;2022-08-19T08:17:11;19.40;;;13.90;;
4144;SDS011;2086;51.050;6.982;2022-08-19T08:19:37;22.50;;;11.87;;
4144;SDS011;2086;51.050;6.982;2022-08-19T08:22:03;26.37;;;14.60;;
4144;SDS011;2086;51.050;6.982;2022-08-19T08:24:31;27.20;;;15.87;;
4144;SDS011;2086;51.050;6.982;2022-08-19T08:26:57;19.70;;;13.63;;
4144;SDS011;2086;51.050;6.982;2022-08-19T08:29:23;23.40;;;14.63;;
4144;SDS011;2086;51.050;6.982;2022-08-19T08:31:49;21.93;;;14.80;;
4144;SDS011;2086;51.050;6.982;2022-08-19T08:34:14;23.70;;;14.10;;
4144;SDS011;2086;51.050;6.982;2022-08-19T08:36:42;22.50;;;12.70;;
4144;SDS011;2086;51.050;6.982;2022-08-19T08:39:11;19.53;;;14.10;;
4144;SDS011;2086;51.050;6.982;2022-08-19T08:44:02;29.00;;;14.40;;
4144;SDS011;2086;51.050;6.982;2022-08-19T08:46:33;31.07;;;13.07;;
4144;SDS011;2086;51.050;6.982;2022-08-19T08:51:36;20.33;;;12.37;;
4144;SDS011;2086;51.050;6.982;2022-08-19T08:54:04;18.87;;;13.93;;
4144;SDS011;2086;51.050;6.982;2022-08-19T08:56:31;17.93;;;12.37;;
4144;SDS011;2086;51.050;6.982;2022-08-19T08:58:58;23.00;;;12.53;;
4144;SDS011;2086;51.050;6.982;2022-08-19T09:01:24;18.67;;;12.63;;
4144;SDS011;2086;51.050;6.982;2022-08-19T09:03:49;20.43;;;13.60;;
4144;SDS011;2086;51.050;6.982;2022-08-19T09:06:19;18.00;;;12.53;;
4144;SDS011;2086;51.050;6.982;2022-08-19T09:09:00;16.80;;;12.03;;
4144;SDS011;2086;51.050;6.982;2022-08-19T09:14:08;19.07;;;11.80;;
4144;SDS011;2086;51.050;6.982;2022-08-19T09:16:34;22.80;;;13.40;;
4144;SDS011;2086;51.050;6.982;2022-08-19T09:19:02;23.60;;;13.53;;
4144;SDS011;2086;51.050;6.982;2022-08-19T09:21:28;23.03;;;13.90;;
4144;SDS011;2086;51.050;6.982;2022-08-19T09:23:53;26.13;;;14.50;;
4144;SDS011;2086;51.050;6.982;2022-08-19T09:26:20;23.73;;;14.07;;
4144;SDS011;2086;51.050;6.982;2022-08-19T09:28:47;20.13;;;13.47;;
4144;SDS011;2086;51.050;6.982;2022-08-19T09:31:13;25.10;;;13.80;;
4144;SDS011;2086;51.050;6.982;2022-08-19T09:33:39;17.70;;;12.17;;
4144;SDS011;2086;51.050;6.982;2022-08-19T09:36:05;22.70;;;12.83;;
4144;SDS011;2086;51.050;6.982;2022-08-19T09:38:32;17.10;;;11.00;;
4144;SDS011;2086;51.050;6.982;2022-08-19T09:41:01;12.53;;;9.73;;
4144;SDS011;2086;51.050;6.982;2022-08-19T09:43:26;15.90;;;10.80;;
4144;SDS011;2086;51.050;6.982;2022-08-19T09:45:53;12.60;;;9.50;;
4144;SDS011;2086;51.050;6.982;2022-08-19T09:48:18;12.67;;;8.43;;
4144;SDS011;2086;51.050;6.982;2022-08-19T09:50:45;12.37;;;8.83;;
4144;SDS011;2086;51.050;6.982;2022-08-19T09:53:11;14.13;;;8.67;;
4144;SDS011;2086;51.050;6.982;2022-08-19T09:55:41;13.40;;;9.40;;
4144;SDS011;2086;51.050;6.982;2022-08-19T09:58:06;13.33;;;8.80;;
4144;SDS011;2086;51.050;6.982;2022-08-19T10:00:31;8.57;;;7.53;;
4144;SDS011;2086;51.050;6.982;2022-08-19T10:02:57;11.20;;;9.57;;
4144;SDS011;2086;51.050;6.982;2022-08-19T10:05:22;11.93;;;8.13;;
4144;SDS011;2086;51.050;6.982;2022-08-19T10:08:08;12.97;;;8.73;;
4144;SDS011;2086;51.050;6.982;2022-08-19T10:10:37;6.93;;;6.33;;
4144;SDS011;2086;51.050;6.982;2022-08-19T10:13:02;12.53;;;8.20;;
4144;SDS011;2086;51.050;6.982;2022-08-19T10:15:28;6.47;;;5.90;;
4144;SDS011;2086;51.050;6.982;2022-08-19T10:17:53;11.13;;;7.27;;
4144;SDS011;2086;51.050;6.982;2022-08-19T10:20:18;8.03;;;7.03;;
4144;SDS011;2086;51.050;6.982;2022-08-19T10:22:43;6.47;;;5.90;;
4144;SDS011;2086;51.050;6.982;2022-08-19T10:25:09;7.37;;;5.87;;
4144;SDS011;2086;51.050;6.982;2022-08-19T10:27:34;10.73;;;5.40;;
4144;SDS011;2086;51.050;6.982;2022-08-19T10:29:59;7.97;;;5.97;;
4144;SDS011;2086;51.050;6.982;2022-08-19T10:32:25;5.93;;;5.32;;
4144;SDS011;2086;51.050;6.982;2022-08-19T10:34:50;6.65;;;6.15;;
4144;SDS011;2086;51.050;6.982;2022-08-19T10:37:17;6.63;;;6.13;;
4144;SDS011;2086;51.050;6.982;2022-08-19T10:39:43;6.30;;;5.70;;
4144;SDS011;2086;51.050;6.982;2022-08-19T10:42:11;5.53;;;5.20;;
4144;SDS011;2086;51.050;6.982;2022-08-19T10:44:37;7.97;;;7.13;;
4144;SDS011;2086;51.050;6.982;2022-08-19T10:47:03;5.70;;;5.30;;
4144;SDS011;2086;51.050;6.982;2022-08-19T10:49:28;7.40;;;6.67;;
4144;SDS011;2086;51.050;6.982;2022-08-19T10:51:54;6.90;;;5.13;;
4144;SDS011;2086;51.050;6.982;2022-08-19T10:54:38;6.30;;;5.37;;
4144;SDS011;2086;51.050;6.982;2022-08-19T10:57:22;5.73;;;5.07;;
4144;SDS011;2086;51.050;6.982;2022-08-19T10:59:54;7.23;;;4.97;;
4144;SDS011;2086;51.050;6.982;2022-08-19T11:02:19;4.83;;;4.63;;
4144;SDS011;2086;51.050;6.982;2022-08-19T11:04:44;4.27;;;3.97;;
4144;SDS011;2086;51.050;6.982;2022-08-19T11:07:09;4.73;;;4.53;;
4144;SDS011;2086;51.050;6.982;2022-08-19T11:09:38;5.90;;;5.50;;
4144;SDS011;2086;51.050;6.982;2022-08-19T11:12:04;3.87;;;3.67;;
4144;SDS011;2086;51.050;6.982;2022-08-19T11:14:29;4.73;;;4.47;;
4144;SDS011;2086;51.050;6.982;2022-08-19T11:16:56;6.13;;;5.50;;
4144;SDS011;2086;51.050;6.982;2022-08-19T11:19:22;5.60;;;5.10;;
4144;SDS011;2086;51.050;6.982;2022-08-19T11:21:48;4.93;;;4.50;;
4144;SDS011;2086;51.050;6.982;2022-08-19T11:24:19;7.73;;;6.37;;
4144;SDS011;2086;51.050;6.982;2022-08-19T11:26:45;4.80;;;4.40;;
4144;SDS011;2086;51.050;6.982;2022-08-19T11:29:11;5.90;;;5.50;;
4144;SDS011;2086;51.050;6.982;2022-08-19T11:31:38;5.63;;;4.97;;
4144;SDS011;2086;51.050;6.982;2022-08-19T11:34:05;5.13;;;4.83;;
4144;SDS011;2086;51.050;6.982;2022-08-19T11:36:31;5.40;;;4.90;;
4144;SDS011;2086;51.050;6.982;2022-08-19T11:38:59;4.03;;;3.83;;
4144;SDS011;2086;51.050;6.982;2022-08-19T11:41:25;6.20;;;4.37;;
4144;SDS011;2086;51.050;6.982;2022-08-19T11:43:51;4.93;;;4.60;;
4144;SDS011;2086;51.050;6.982;2022-08-19T11:46:18;4.10;;;3.90;;
4144;SDS011;2086;51.050;6.982;2022-08-19T11:48:44;4.60;;;4.13;;
4144;SDS011;2086;51.050;6.982;2022-08-19T11:51:10;5.37;;;4.80;;
4144;SDS011;2086;51.050;6.982;2022-08-19T11:53:36;4.87;;;4.47;;
4144;SDS011;2086;51.050;6.982;2022-08-19T11:56:01;4.40;;;4.03;;
4144;SDS011;2086;51.050;6.982;2022-08-19T11:58:27;6.90;;;4.83;;
4144;SDS011;2086;51.050;6.982;2022-08-19T12:00:53;9.53;;;4.47;;
4144;SDS011;2086;51.050;6.982;2022-08-19T12:03:19;5.27;;;4.80;;
4144;SDS011;2086;51.050;6.982;2022-08-19T12:05:44;4.50;;;4.30;;
4144;SDS011;2086;51.050;6.982;2022-08-19T12:08:10;4.53;;;4.33;;
4144;SDS011;2086;51.050;6.982;2022-08-19T12:10:37;4.50;;;4.20;;
4144;SDS011;2086;51.050;6.982;2022-08-19T12:13:03;4.23;;;4.07;;
4144;SDS011;2086;51.050;6.982;2022-08-19T12:15:28;3.10;;;3.00;;
4144;SDS011;2086;51.050;6.982;2022-08-19T12:17:54;2.63;;;2.53;;
4144;SDS011;2086;51.050;6.982;2022-08-19T12:20:21;3.67;;;3.47;;
4144;SDS011;2086;51.050;6.982;2022-08-19T12:22:47;4.13;;;3.83;;
4144;SDS011;2086;51.050;6.982;2022-08-19T12:25:13;3.23;;;3.03;;
4144;SDS011;2086;51.050;6.982;2022-08-19T12:27:38;3.23;;;3.13;;
4144;SDS011;2086;51.050;6.982;2022-08-19T12:30:04;2.90;;;2.60;;
4144;SDS011;2086;51.050;6.982;2022-08-19T12:32:30;2.80;;;2.60;;
4144;SDS011;2086;51.050;6.982;2022-08-19T12:34:55;3.10;;;2.90;;
4144;SDS011;2086;51.050;6.982;2022-08-19T12:37:20;3.47;;;3.10;;
4144;SDS011;2086;51.050;6.982;2022-08-19T12:39:45;4.30;;;4.00;;
4144;SDS011;2086;51.050;6.982;2022-08-19T12:42:11;2.80;;;2.70;;
4144;SDS011;2086;51.050;6.982;2022-08-19T12:44:37;4.03;;;3.40;;
4144;SDS011;2086;51.050;6.982;2022-08-19T12:47:04;2.50;;;2.40;;
4144;SDS011;2086;51.050;6.982;2022-08-19T12:49:29;3.20;;;2.90;;
4144;SDS011;2086;51.050;6.982;2022-08-19T12:51:56;2.97;;;2.87;;
4144;SDS011;2086;51.050;6.982;2022-08-19T12:54:23;2.73;;;2.60;;
4144;SDS011;2086;51.050;6.982;2022-08-19T12:56:48;3.67;;;3.47;;
4144;SDS011;2086;51.050;6.982;2022-08-19T12:59:13;3.10;;;2.90;;
4144;SDS011;2086;51.050;6.982;2022-08-19T13:01:40;3.10;;;2.90;;
4144;SDS011;2086;51.050;6.982;2022-08-19T13:04:13;3.67;;;3.47;;
4144;SDS011;2086;51.050;6.982;2022-08-19T13:06:38;3.27;;;3.07;;
4144;SDS011;2086;51.050;6.982;2022-08-19T13:09:04;3.40;;;3.20;;
4144;SDS011;2086;51.050;6.982;2022-08-19T13:11:29;2.40;;;2.30;;
4144;SDS011;2086;51.050;6.982;2022-08-19T13:13:57;2.90;;;2.70;;
4144;SDS011;2086;51.050;6.982;2022-08-19T13:16:22;3.37;;;3.10;;
4144;SDS011;2086;51.050;6.982;2022-08-19T13:18:48;3.40;;;3.10;;
4144;SDS011;2086;51.050;6.982;2022-08-19T13:21:14;2.80;;;2.70;;
4144;SDS011;2086;51.050;6.982;2022-08-19T13:23:40;2.47;;;2.37;;
4144;SDS011;2086;51.050;6.982;2022-08-19T13:26:06;2.83;;;2.70;;
4144;SDS011;2086;51.050;6.982;2022-08-19T13:28:32;6.33;;;2.93;;
4144;SDS011;2086;51.050;6.982;2022-08-19T13:31:17;2.50;;;2.40;;
4144;SDS011;2086;51.050;6.982;2022-08-19T13:34:01;2.80;;;2.60;;
4144;SDS011;2086;51.050;6.982;2022-08-19T13:36:27;2.67;;;2.50;;
4144;SDS011;2086;51.050;6.982;2022-08-19T13:38:52;3.03;;;2.83;;
4144;SDS011;2086;51.050;6.982;2022-08-19T13:41:17;2.50;;;2.30;;
4144;SDS011;2086;51.050;6.982;2022-08-19T13:43:44;2.50;;;2.40;;
4144;SDS011;2086;51.050;6.982;2022-08-19T13:46:09;2.20;;;2.10;;
4144;SDS011;2086;51.050;6.982;2022-08-19T13:48:35;2.73;;;2.47;;
4144;SDS011;2086;51.050;6.982;2022-08-19T13:51:00;3.30;;;3.20;;
4144;SDS011;2086;51.050;6.982;2022-08-19T13:53:29;3.30;;;3.00;;
4144;SDS011;2086;51.050;6.982;2022-08-19T13:55:55;2.83;;;2.33;;
4144;SDS011;2086;51.050;6.982;2022-08-19T13:58:20;3.20;;;2.50;;
4144;SDS011;2086;51.050;6.982;2022-08-19T14:00:46;2.20;;;2.10;;
4144;SDS011;2086;51.050;6.982;2022-08-19T14:03:11;2.50;;;2.40;;
4144;SDS011;2086;51.050;6.982;2022-08-19T14:05:36;2.60;;;2.40;;
4144;SDS011;2086;51.050;6.982;2022-08-19T14:08:02;3.23;;;2.20;;
4144;SDS011;2086;51.050;6.982;2022-08-19T14:10:27;2.10;;;1.90;;
4144;SDS011;2086;51.050;6.982;2022-08-19T14:12:55;2.70;;;2.60;;
4144;SDS011;2086;51.050;6.982;2022-08-19T14:15:23;2.40;;;2.30;;
4144;SDS011;2086;51.050;6.982;2022-08-19T14:17:48;2.10;;;2.00;;
4144;SDS011;2086;51.050;6.982;2022-08-19T14:20:14;2.03;;;1.80;;
4144;SDS011;2086;51.050;6.982;2022-08-19T14:22:40;1.83;;;1.73;;
4144;SDS011;2086;51.050;6.982;2022-08-19T14:25:07;2.23;;;2.13;;
4144;SDS011;2086;51.050;6.982;2022-08-19T14:27:33;4.40;;;2.13;;
4144;SDS011;2086;51.050;6.982;2022-08-19T14:29:58;2.60;;;2.23;;
4144;SDS011;2086;51.050;6.982;2022-08-19T14:32:24;3.27;;;1.77;;
4144;SDS011;2086;51.050;6.982;2022-08-19T14:34:52;1.77;;;1.67;;
4144;SDS011;2086;51.050;6.982;2022-08-19T14:37:17;1.80;;;1.70;;
4144;SDS011;2086;51.050;6.982;2022-08-19T14:39:43;1.50;;;1.40;;
4144;SDS011;2086;51.050;6.982;2022-08-19T14:42:09;1.30;;;1.30;;
4144;SDS011;2086;51.050;6.982;2022-08-19T14:44:35;1.73;;;1.63;;
4144;SDS011;2086;51.050;6.982;2022-08-19T14:47:00;1.60;;;1.50;;
4144;SDS011;2086;51.050;6.982;2022-08-19T14:49:25;2.33;;;1.80;;
4144;SDS011;2086;51.050;6.982;2022-08-19T14:51:51;2.17;;;2.07;;
4144;SDS011;2086;51.050;6.982;2022-08-19T14:54:16;1.73;;;1.63;;
4144;SDS011;2086;51.050;6.982;2022-08-19T14:56:41;1.50;;;1.40;;
4144;SDS011;2086;51.050;6.982;2022-08-19T14:59:06;1.47;;;1.30;;
4144;SDS011;2086;51.050;6.982;2022-08-19T15:01:32;1.27;;;1.20;;
4144;SDS011;2086;51.050;6.982;2022-08-19T15:03:57;1.50;;;1.40;;
4144;SDS011;2086;51.050;6.982;2022-08-19T15:06:23;1.80;;;1.70;;
4144;SDS011;2086;51.050;6.982;2022-08-19T15:08:49;2.53;;;1.77;;